Terminal Aerodrome Forecast
Issued by NWS

Home | Current Version | Previous Version | Text Only | Print | Product List | Glossary On
Versions: 1 2 3 4 5 6 7 8 9 10 11 12 13 14 15 16 17 18 19 20
985
FTUS43 KPAH 201605 AAB
TAFCGI
TAF AMD
KCGI 201605Z 2016/2112 18007KT P6SM SCT008 OVC024
      TEMPO 2016/2019 4SM -DZ BR BKN008
     FM201900 17009KT P6SM BKN006 OVC015
     FM210600 19006KT 6SM BR OVC012=

USA.gov is the U.S. government's official web portal to all federal, state and local government web resources and services.